createdAt,value
2019-02-09T00:00:00.845Z,8.60
2019-02-09T00:02:30.129Z,8.60
2019-02-09T00:04:59.151Z,8.70
2019-02-09T00:07:28.147Z,8.60
2019-02-09T00:09:57.114Z,8.60
2019-02-09T00:12:27.425Z,8.60
2019-02-09T00:14:56.562Z,8.60
2019-02-09T00:17:29.136Z,8.50
2019-02-09T00:19:58.368Z,8.40
2019-02-09T00:22:27.240Z,8.30
2019-02-09T00:24:57.422Z,8.20
2019-02-09T00:27:26.595Z,8.20
2019-02-09T00:29:56.320Z,8.20
2019-02-09T00:32:25.398Z,8.10
2019-02-09T00:34:55.680Z,8.10
2019-02-09T00:37:24.570Z,8.10
2019-02-09T00:39:56.672Z,8.00
2019-02-09T00:42:25.983Z,7.90
2019-02-09T00:44:55.194Z,7.90
2019-02-09T00:47:24.187Z,7.90
2019-02-09T00:49:53.420Z,7.90
2019-02-09T00:52:23.013Z,7.90
2019-02-09T00:54:51.997Z,7.90
2019-02-09T00:57:21.577Z,7.90
2019-02-09T00:59:54.474Z,8.00
2019-02-09T01:02:28.763Z,8.00
2019-02-09T01:04:57.715Z,8.00
2019-02-09T01:07:26.661Z,8.00
2019-02-09T01:09:55.547Z,8.10
2019-02-09T01:12:24.460Z,8.20
2019-02-09T01:14:54.221Z,8.20
2019-02-09T01:17:23.839Z,8.20
2019-02-09T01:19:53.393Z,8.20
2019-02-09T01:22:22.380Z,8.30
2019-02-09T01:24:51.266Z,8.30
2019-02-09T01:27:20.144Z,8.30
2019-02-09T01:29:50.242Z,8.30
2019-02-09T01:32:19.128Z,8.30
2019-02-09T01:34:48.962Z,8.30
2019-02-09T01:37:18.044Z,8.30
2019-02-09T01:39:47.760Z,8.20
2019-02-09T01:42:16.670Z,8.20
2019-02-09T01:44:45.591Z,8.10
2019-02-09T01:47:15.591Z,8.10
2019-02-09T01:49:44.567Z,8.10
2019-02-09T01:52:13.452Z,8.00
2019-02-09T01:54:42.357Z,8.00
2019-02-09T01:57:11.517Z,8.00
2019-02-09T01:59:40.535Z,8.00
2019-02-09T02:02:09.520Z,8.00
2019-02-09T02:04:38.734Z,8.00
2019-02-09T02:07:07.777Z,8.00
2019-02-09T02:09:39.895Z,7.90
2019-02-09T02:12:09.441Z,7.90
2019-02-09T02:14:38.326Z,7.90
2019-02-09T02:17:11.331Z,7.90
2019-02-09T02:19:40.658Z,7.80
2019-02-09T02:22:09.866Z,7.80
2019-02-09T02:24:40.684Z,7.80
2019-02-09T02:27:09.912Z,7.80
2019-02-09T02:29:38.868Z,7.90
2019-02-09T02:32:07.826Z,7.90
2019-02-09T02:34:36.729Z,7.90
2019-02-09T02:37:06.798Z,8.00
2019-02-09T02:39:35.850Z,8.00
2019-02-09T02:42:05.173Z,8.10
2019-02-09T02:44:34.117Z,8.10
2019-02-09T02:47:03.549Z,8.10
2019-02-09T02:49:32.958Z,8.10
2019-02-09T02:52:01.943Z,8.10
2019-02-09T02:54:30.855Z,8.10
2019-02-09T02:57:00.403Z,8.20
2019-02-09T02:59:30.016Z,8.20
2019-02-09T03:01:59.251Z,8.20
2019-02-09T03:04:29.020Z,8.10
2019-02-09T03:06:59.034Z,8.20
2019-02-09T03:09:29.973Z,8.20
2019-02-09T03:11:58.943Z,8.10
2019-02-09T03:14:27.821Z,8.10
2019-02-09T03:16:56.754Z,8.10
2019-02-09T03:19:25.638Z,8.10
2019-02-09T03:21:54.610Z,8.10
2019-02-09T03:24:23.513Z,8.10
2019-02-09T03:27:25.866Z,8.10
2019-02-09T03:29:55.050Z,8.10
2019-02-09T03:32:24.247Z,8.00
2019-02-09T03:34:55.952Z,8.00
2019-02-09T03:37:24.884Z,8.00
2019-02-09T03:39:54.309Z,8.00
2019-02-09T03:42:23.248Z,8.00
2019-02-09T03:44:53.236Z,7.90
2019-02-09T03:47:28.542Z,7.90
2019-02-09T03:49:58.193Z,8.00
2019-02-09T03:55:07.460Z,7.90
2019-02-09T03:57:36.389Z,7.90
2019-02-09T04:00:09.509Z,7.80
2019-02-09T04:02:38.707Z,7.80
2019-02-09T04:05:08.813Z,7.70
2019-02-09T04:08:08.080Z,7.70
2019-02-09T04:10:37.024Z,7.70
2019-02-09T04:13:06.198Z,7.70
2019-02-09T04:15:35.106Z,7.70
2019-02-09T04:18:04.781Z,7.70
2019-02-09T04:20:33.894Z,7.70
2019-02-09T04:23:03.113Z,7.70
2019-02-09T04:25:33.194Z,7.70
2019-02-09T04:28:02.181Z,7.70
2019-02-09T04:30:32.270Z,7.70
2019-02-09T04:33:01.277Z,7.70
2019-02-09T04:35:30.160Z,7.70
2019-02-09T04:37:59.172Z,7.70
2019-02-09T04:40:30.370Z,7.70
2019-02-09T04:42:59.548Z,7.80
2019-02-09T04:45:30.613Z,7.80
2019-02-09T04:47:59.621Z,7.80
2019-02-09T04:50:29.425Z,7.80
2019-02-09T04:52:58.731Z,7.80
2019-02-09T04:55:29.180Z,7.80
2019-02-09T04:57:58.399Z,7.80
2019-02-09T05:00:28.980Z,7.80
2019-02-09T05:02:59.055Z,7.80
2019-02-09T05:05:32.220Z,7.70
2019-02-09T05:08:01.057Z,7.70
2019-02-09T05:10:31.094Z,7.60
2019-02-09T05:13:00.047Z,7.60
2019-02-09T05:18:04.008Z,7.70
2019-02-09T05:20:33.503Z,7.70
2019-02-09T05:23:02.486Z,7.70
2019-02-09T05:25:37.707Z,7.70
2019-02-09T05:28:06.604Z,7.60
2019-02-09T05:30:35.546Z,7.50
2019-02-09T05:35:40.813Z,7.50
2019-02-09T05:38:09.725Z,7.50
2019-02-09T05:40:38.695Z,7.50
2019-02-09T05:43:07.576Z,7.50
2019-02-09T05:49:17.593Z,7.40
2019-02-09T05:51:46.539Z,7.40
2019-02-09T05:54:16.382Z,7.40
2019-02-09T05:56:45.342Z,7.50
2019-02-09T06:01:50.177Z,7.40
2019-02-09T06:04:21.973Z,7.40
2019-02-09T06:06:54.529Z,7.40
2019-02-09T06:09:23.749Z,7.40
2019-02-09T06:11:58.816Z,7.40
2019-02-09T06:17:02.209Z,7.40
2019-02-09T06:19:31.225Z,7.40
2019-02-09T06:22:00.692Z,7.40
2019-02-09T06:24:29.802Z,7.50
2019-02-09T06:26:59.058Z,7.40
2019-02-09T06:29:28.254Z,7.50
2019-02-09T06:31:57.574Z,7.50
2019-02-09T06:34:27.571Z,7.50
2019-02-09T06:36:57.740Z,7.40
2019-02-09T06:39:27.504Z,7.40
2019-02-09T06:41:56.730Z,7.40
2019-02-09T06:44:27.786Z,7.40
2019-02-09T06:46:56.389Z,7.40
2019-02-09T06:49:25.278Z,7.40
2019-02-09T06:51:59.589Z,7.40
2019-02-09T06:54:28.266Z,7.40
2019-02-09T06:56:57.169Z,7.40
2019-02-09T06:59:26.845Z,7.40
2019-02-09T07:01:56.005Z,7.40
2019-02-09T07:04:28.186Z,7.30
2019-02-09T07:06:57.089Z,7.40
2019-02-09T07:09:26.926Z,7.40
2019-02-09T07:11:57.143Z,7.40
2019-02-09T07:14:26.107Z,7.30
2019-02-09T07:16:55.145Z,7.40
2019-02-09T07:19:24.156Z,7.40
2019-02-09T07:21:53.153Z,7.40
2019-02-09T07:24:24.546Z,7.40
2019-02-09T07:26:54.305Z,7.50
2019-02-09T07:29:23.334Z,7.50
2019-02-09T07:31:56.533Z,7.50
2019-02-09T07:34:27.885Z,7.50
2019-02-09T07:36:57.285Z,7.50
2019-02-09T07:39:26.580Z,7.50
2019-02-09T07:41:55.839Z,7.60
2019-02-09T07:44:24.748Z,7.60
2019-02-09T07:46:53.968Z,7.70
2019-02-09T07:49:22.983Z,7.70
2019-02-09T07:51:51.896Z,7.80
2019-02-09T07:54:22.642Z,7.70
2019-02-09T07:56:51.546Z,7.80
2019-02-09T07:59:20.742Z,7.70
2019-02-09T08:01:50.493Z,7.70
2019-02-09T08:04:19.658Z,7.80
2019-02-09T08:06:48.596Z,7.80
2019-02-09T08:09:18.103Z,7.90
2019-02-09T08:11:53.221Z,7.90
2019-02-09T08:14:22.604Z,7.90
2019-02-09T08:16:51.990Z,7.80
2019-02-09T08:19:21.098Z,7.90
2019-02-09T08:21:50.833Z,7.90
2019-02-09T08:24:19.828Z,8.00
2019-02-09T08:26:49.137Z,8.10
2019-02-09T08:29:18.026Z,8.20
2019-02-09T08:31:50.221Z,8.20
2019-02-09T08:34:19.837Z,8.20
2019-02-09T08:36:48.759Z,8.20
2019-02-09T08:39:18.007Z,8.20
2019-02-09T08:41:47.004Z,8.20
2019-02-09T08:44:16.050Z,8.20
2019-02-09T08:46:45.057Z,8.20
2019-02-09T08:49:17.260Z,8.20
2019-02-09T08:51:46.218Z,8.20
2019-02-09T08:54:15.288Z,8.30
2019-02-09T08:56:44.535Z,8.30
2019-02-09T08:59:13.814Z,8.30
2019-02-09T09:01:43.637Z,8.40
2019-02-09T09:04:13.880Z,8.40
2019-02-09T09:06:42.881Z,8.40
2019-02-09T09:09:12.333Z,8.40
2019-02-09T09:11:41.284Z,8.40
2019-02-09T09:14:10.590Z,8.40
2019-02-09T09:16:42.785Z,8.40
2019-02-09T09:19:11.727Z,8.40
2019-02-09T09:21:42.336Z,8.40
2019-02-09T09:24:12.149Z,8.50
2019-02-09T09:26:41.385Z,8.50
2019-02-09T09:29:10.809Z,8.50
2019-02-09T09:31:40.312Z,8.60
2019-02-09T09:34:10.273Z,8.60
2019-02-09T09:36:39.290Z,8.70
2019-02-09T09:39:09.866Z,8.60
2019-02-09T09:41:39.011Z,8.60
2019-02-09T09:44:11.979Z,8.70
2019-02-09T09:46:41.133Z,8.80
2019-02-09T09:49:10.209Z,8.80
2019-02-09T09:51:39.165Z,8.90
2019-02-09T09:54:08.528Z,8.90
2019-02-09T09:56:37.459Z,8.90
2019-02-09T09:59:06.512Z,9.00
2019-02-09T10:01:41.340Z,9.00
2019-02-09T10:04:10.825Z,9.10
2019-02-09T10:06:39.667Z,9.10
2019-02-09T10:09:12.544Z,9.20
2019-02-09T10:11:41.680Z,9.20
2019-02-09T10:14:14.711Z,9.20
2019-02-09T10:16:44.313Z,9.20
2019-02-09T10:19:25.254Z,9.20
2019-02-09T10:21:54.762Z,9.30
2019-02-09T10:24:24.432Z,9.30
2019-02-09T10:26:56.987Z,9.30
2019-02-09T10:29:26.806Z,9.30
2019-02-09T10:31:55.880Z,9.30
2019-02-09T10:34:24.721Z,9.20
2019-02-09T10:36:54.111Z,9.30
2019-02-09T10:39:23.192Z,9.20
2019-02-09T10:41:52.398Z,9.20
2019-02-09T10:44:22.028Z,9.20
2019-02-09T10:49:25.993Z,9.30
2019-02-09T10:51:58.064Z,9.30
2019-02-09T10:54:28.640Z,9.20
2019-02-09T10:56:57.743Z,9.20
2019-02-09T10:59:26.949Z,9.20
2019-02-09T11:01:56.176Z,9.20
2019-02-09T11:04:25.309Z,9.20
2019-02-09T11:06:55.842Z,9.20
2019-02-09T11:09:26.234Z,9.30
2019-02-09T11:11:55.396Z,9.30
2019-02-09T11:14:25.267Z,9.30
2019-02-09T11:16:54.590Z,9.30
2019-02-09T11:19:23.866Z,9.30
2019-02-09T11:21:52.900Z,9.40
2019-02-09T11:24:22.071Z,9.40
2019-02-09T11:26:51.068Z,9.50
2019-02-09T11:29:21.309Z,9.50
2019-02-09T11:31:50.800Z,9.40
2019-02-09T11:34:20.007Z,9.40
2019-02-09T11:36:49.080Z,9.50
2019-02-09T11:39:19.984Z,9.50
2019-02-09T11:41:52.596Z,9.50
2019-02-09T11:44:21.635Z,9.50
2019-02-09T11:49:25.832Z,9.50
2019-02-09T11:51:54.805Z,9.60
2019-02-09T11:54:23.782Z,9.60
2019-02-09T11:56:56.318Z,9.60
2019-02-09T11:59:25.319Z,9.60
2019-02-09T12:01:54.588Z,9.60
2019-02-09T12:04:23.601Z,9.60
2019-02-09T12:06:52.695Z,9.60
2019-02-09T12:09:21.953Z,9.70
2019-02-09T12:11:51.165Z,9.60
2019-02-09T12:14:20.726Z,9.60
2019-02-09T12:16:49.762Z,9.60
2019-02-09T12:19:18.817Z,9.60
2019-02-09T12:21:48.139Z,9.70
2019-02-09T12:24:17.470Z,9.60
2019-02-09T12:26:46.688Z,9.70
2019-02-09T12:29:16.492Z,9.70
2019-02-09T12:31:47.474Z,9.70
2019-02-09T12:34:18.277Z,9.70
2019-02-09T12:36:49.826Z,9.70
2019-02-09T12:39:19.145Z,9.80
2019-02-09T12:41:48.167Z,9.80
2019-02-09T12:44:20.594Z,9.70
2019-02-09T12:46:51.195Z,9.70
2019-02-09T12:49:23.019Z,9.80
2019-02-09T12:51:53.990Z,9.80
2019-02-09T12:54:25.135Z,9.80
2019-02-09T12:56:54.127Z,9.80
2019-02-09T12:59:23.112Z,9.80
2019-02-09T13:01:52.231Z,9.90
2019-02-09T13:04:21.413Z,10.00
2019-02-09T13:06:50.447Z,10.10
2019-02-09T13:09:19.530Z,10.00
2019-02-09T13:11:49.478Z,10.10
2019-02-09T13:14:20.088Z,10.00
2019-02-09T13:16:52.238Z,9.90
2019-02-09T13:19:25.543Z,9.80
2019-02-09T13:22:25.473Z,9.80
2019-02-09T13:24:54.785Z,9.80
2019-02-09T13:27:24.045Z,9.70
2019-02-09T13:29:56.442Z,9.70
2019-02-09T13:32:25.807Z,9.80
2019-02-09T13:34:55.973Z,9.80
2019-02-09T13:37:25.314Z,9.80
2019-02-09T13:39:54.705Z,9.80
2019-02-09T13:42:24.606Z,9.80
2019-02-09T13:44:54.050Z,9.70
2019-02-09T13:47:23.091Z,9.70
2019-02-09T13:49:55.085Z,9.70
2019-02-09T13:52:29.508Z,9.60
2019-02-09T13:57:35.758Z,9.50
2019-02-09T14:00:09.859Z,9.50
2019-02-09T14:02:39.035Z,9.50
2019-02-09T14:05:11.640Z,9.40
2019-02-09T14:07:41.559Z,9.30
2019-02-09T14:10:12.034Z,9.30
2019-02-09T14:12:41.493Z,9.30
2019-02-09T14:15:14.808Z,9.30
2019-02-09T14:17:43.925Z,9.20
2019-02-09T14:20:13.773Z,9.20
2019-02-09T14:22:47.187Z,9.20
2019-02-09T14:25:16.940Z,9.20
2019-02-09T14:27:53.557Z,9.20
2019-02-09T14:30:24.351Z,9.30
2019-02-09T14:32:54.036Z,9.30
2019-02-09T14:35:24.070Z,9.30
2019-02-09T14:37:53.339Z,9.30
2019-02-09T14:42:59.757Z,9.30
2019-02-09T14:45:36.022Z,9.30
2019-02-09T14:48:05.734Z,9.30
2019-02-09T14:50:35.095Z,9.40
2019-02-09T14:53:05.816Z,9.40
2019-02-09T14:55:35.747Z,9.50
2019-02-09T14:58:05.188Z,9.60
2019-02-09T15:00:41.586Z,9.60
2019-02-09T15:03:14.490Z,9.70
2019-02-09T15:05:44.089Z,9.70
2019-02-09T15:08:17.546Z,9.60
2019-02-09T15:10:46.630Z,9.70
2019-02-09T15:13:16.259Z,9.70
2019-02-09T15:16:02.118Z,9.70
2019-02-09T15:18:37.709Z,9.70
2019-02-09T15:21:07.130Z,9.70
2019-02-09T15:23:39.516Z,9.60
2019-02-09T15:26:08.659Z,9.60
2019-02-09T15:28:38.075Z,9.60
2019-02-09T15:31:07.256Z,9.60
2019-02-09T15:33:36.340Z,9.50
2019-02-09T15:36:06.840Z,9.50
2019-02-09T15:38:36.172Z,9.40
2019-02-09T15:41:05.872Z,9.40
2019-02-09T15:43:36.002Z,9.30
2019-02-09T15:46:05.467Z,9.20
2019-02-09T15:48:34.424Z,9.10
2019-02-09T15:51:03.478Z,9.00
2019-02-09T15:53:34.021Z,9.00
2019-02-09T15:56:13.867Z,8.90
2019-02-09T15:58:43.060Z,8.90
2019-02-09T16:01:12.515Z,8.90
2019-02-09T16:03:41.626Z,8.80
2019-02-09T16:06:11.602Z,8.80
2019-02-09T16:08:43.786Z,8.80
2019-02-09T16:11:15.208Z,8.80
2019-02-09T16:13:45.960Z,8.80
2019-02-09T16:16:15.940Z,8.70
2019-02-09T16:18:51.158Z,8.80
2019-02-09T16:21:25.662Z,8.70
2019-02-09T16:26:30.193Z,8.60
2019-02-09T16:28:59.525Z,8.60
2019-02-09T16:31:28.527Z,8.50
2019-02-09T16:33:57.539Z,8.50
2019-02-09T16:36:26.786Z,8.50
2019-02-09T16:38:56.143Z,8.50
2019-02-09T16:41:25.172Z,8.50
2019-02-09T16:43:54.250Z,8.50
2019-02-09T16:46:23.846Z,8.40
2019-02-09T16:48:52.868Z,8.40
2019-02-09T16:51:21.840Z,8.30
2019-02-09T16:54:03.070Z,8.30
2019-02-09T16:56:44.486Z,8.30
2019-02-09T17:01:48.443Z,8.20
2019-02-09T17:04:18.561Z,8.20
2019-02-09T17:06:48.327Z,8.30
2019-02-09T17:09:17.556Z,8.30
2019-02-09T17:11:48.738Z,8.20
2019-02-09T17:14:18.069Z,8.30
2019-02-09T17:16:47.645Z,8.40
2019-02-09T17:19:22.986Z,8.40
2019-02-09T17:21:52.120Z,8.40
2019-02-09T17:24:21.115Z,8.40
2019-02-09T17:26:50.407Z,8.30
2019-02-09T17:29:19.718Z,8.30
2019-02-09T17:31:48.951Z,8.30
2019-02-09T17:34:18.219Z,8.30
2019-02-09T17:36:48.094Z,8.20
2019-02-09T17:39:17.127Z,8.20
2019-02-09T17:41:46.201Z,8.20
2019-02-09T17:44:15.290Z,8.30
2019-02-09T17:46:46.678Z,8.20
2019-02-09T17:49:16.104Z,8.20
2019-02-09T17:51:45.418Z,8.30
2019-02-09T17:54:14.608Z,8.30
2019-02-09T17:56:44.093Z,8.20
2019-02-09T17:59:13.157Z,8.20
2019-02-09T18:01:42.614Z,8.20
2019-02-09T18:04:11.718Z,8.20
2019-02-09T18:06:40.717Z,8.20
2019-02-09T18:09:13.117Z,8.20
2019-02-09T18:11:42.356Z,8.20
2019-02-09T18:14:11.877Z,8.20
2019-02-09T18:16:43.889Z,8.30
2019-02-09T18:19:14.997Z,8.30
2019-02-09T18:22:20.277Z,8.30
2019-02-09T18:24:49.239Z,8.30
2019-02-09T18:27:18.568Z,8.40
2019-02-09T18:29:50.913Z,8.40
2019-02-09T18:32:19.935Z,8.40
2019-02-09T18:34:55.873Z,8.40
2019-02-09T18:37:20.027Z,8.40
2019-02-09T18:39:49.242Z,8.40
2019-02-09T18:42:19.113Z,8.40
2019-02-09T18:44:48.047Z,8.50
2019-02-09T18:47:17.329Z,8.50
2019-02-09T18:49:46.478Z,8.50
2019-02-09T18:52:16.694Z,8.50
2019-02-09T18:54:46.398Z,8.50
2019-02-09T18:57:16.205Z,8.50
2019-02-09T18:59:46.116Z,8.60
2019-02-09T19:02:15.658Z,8.60
2019-02-09T19:04:44.608Z,8.60
2019-02-09T19:07:13.528Z,8.60
2019-02-09T19:09:44.068Z,8.60
2019-02-09T19:12:13.307Z,8.60
2019-02-09T19:14:42.401Z,8.60
2019-02-09T19:17:11.411Z,8.60
2019-02-09T19:19:43.870Z,8.60
2019-02-09T19:22:20.126Z,8.70
2019-02-09T19:24:47.438Z,8.70
2019-02-09T19:27:16.740Z,8.70
2019-02-09T19:29:46.495Z,8.60
2019-02-09T19:32:16.904Z,8.70
2019-02-09T19:34:45.806Z,8.60
2019-02-09T19:37:16.700Z,8.60
2019-02-09T19:39:45.791Z,8.60
2019-02-09T19:42:15.921Z,8.60
2019-02-09T19:44:44.852Z,8.60
2019-02-09T19:47:17.218Z,8.60
2019-02-09T19:49:46.172Z,8.70
2019-02-09T19:52:15.492Z,8.60
2019-02-09T19:54:45.425Z,8.60
2019-02-09T19:57:20.564Z,8.60
2019-02-09T19:59:49.892Z,8.60
2019-02-09T20:02:19.168Z,8.60
2019-02-09T20:04:48.112Z,8.60
2019-02-09T20:07:17.133Z,8.60
2019-02-09T20:09:46.487Z,8.60
2019-02-09T20:12:16.181Z,8.60
2019-02-09T20:17:21.038Z,8.60
2019-02-09T20:19:49.982Z,8.60
2019-02-09T20:22:18.901Z,8.60
2019-02-09T20:24:48.155Z,8.60
2019-02-09T20:27:17.448Z,8.60
2019-02-09T20:29:46.587Z,8.60
2019-02-09T20:32:17.623Z,8.70
2019-02-09T20:34:46.611Z,8.70
2019-02-09T20:37:15.667Z,8.70
2019-02-09T20:39:45.103Z,8.70
2019-02-09T20:42:14.112Z,8.70
2019-02-09T20:44:44.203Z,8.70
2019-02-09T20:47:14.404Z,8.70
2019-02-09T20:49:43.524Z,8.80
2019-02-09T20:52:13.368Z,8.80
2019-02-09T20:54:51.312Z,8.70
2019-02-09T20:57:20.831Z,8.60
2019-02-09T20:59:49.744Z,8.60
2019-02-09T21:02:18.860Z,8.60
2019-02-09T21:04:47.917Z,8.60
2019-02-09T21:07:24.251Z,8.50
2019-02-09T21:09:54.311Z,8.50
2019-02-09T21:12:23.859Z,8.50
2019-02-09T21:14:52.895Z,8.50
2019-02-09T21:17:26.161Z,8.50
2019-02-09T21:19:55.435Z,8.50
2019-02-09T21:22:24.719Z,8.50
2019-02-09T21:24:54.627Z,8.50
2019-02-09T21:27:26.929Z,8.50
2019-02-09T21:29:56.241Z,8.50
2019-02-09T21:32:25.569Z,8.50
2019-02-09T21:34:54.503Z,8.50
2019-02-09T21:37:23.547Z,8.50
2019-02-09T21:39:52.639Z,8.50
2019-02-09T21:42:21.776Z,8.50
2019-02-09T21:44:50.725Z,8.50
2019-02-09T21:47:19.814Z,8.40
2019-02-09T21:49:49.901Z,8.50
2019-02-09T21:52:18.969Z,8.40
2019-02-09T21:54:48.497Z,8.50
2019-02-09T21:57:17.751Z,8.40
2019-02-09T21:59:46.899Z,8.40
2019-02-09T22:02:16.740Z,8.40
2019-02-09T22:04:46.035Z,8.40
2019-02-09T22:07:15.399Z,8.30
2019-02-09T22:09:44.292Z,8.30
2019-02-09T22:12:14.221Z,8.30
2019-02-09T22:14:43.279Z,8.30
2019-02-09T22:17:12.614Z,8.30
2019-02-09T22:19:42.273Z,8.30
2019-02-09T22:22:11.383Z,8.30
2019-02-09T22:24:40.420Z,8.30
2019-02-09T22:27:10.276Z,8.30
2019-02-09T22:29:39.215Z,8.20
2019-02-09T22:32:08.280Z,8.20
2019-02-09T22:34:37.350Z,8.20
2019-02-09T22:37:07.540Z,8.20
2019-02-09T22:39:39.565Z,8.20
2019-02-09T22:42:09.141Z,8.20
2019-02-09T22:44:42.311Z,8.20
2019-02-09T22:47:11.572Z,8.20
2019-02-09T22:49:40.845Z,8.20
2019-02-09T22:52:10.607Z,8.20
2019-02-09T22:54:43.119Z,8.20
2019-02-09T22:57:12.157Z,8.20
2019-02-09T22:59:41.973Z,8.20
2019-02-09T23:02:11.831Z,8.20
2019-02-09T23:05:06.508Z,8.20
2019-02-09T23:07:36.010Z,8.20
2019-02-09T23:10:12.864Z,8.30
2019-02-09T23:12:48.357Z,8.30
2019-02-09T23:15:12.486Z,8.30
2019-02-09T23:17:41.868Z,8.30
2019-02-09T23:20:12.315Z,8.20
2019-02-09T23:22:41.505Z,8.20
2019-02-09T23:25:11.073Z,8.20
2019-02-09T23:27:40.099Z,8.20
2019-02-09T23:30:12.242Z,8.20
2019-02-09T23:32:41.327Z,8.20
2019-02-09T23:35:11.051Z,8.20
2019-02-09T23:37:42.308Z,8.20
2019-02-09T23:40:14.501Z,8.20
2019-02-09T23:42:43.539Z,8.10
2019-02-09T23:47:46.980Z,8.10
2019-02-09T23:50:17.759Z,8.10
2019-02-09T23:52:47.908Z,8.10
2019-02-09T23:55:16.806Z,8.10
2019-02-09T23:58:14.153Z,8.10
